sensor_id;sensor_type;location;lat;lon;timestamp;pressure;altitude;pressure_sealevel;temperature;humidity
65534;BME280;53640;55.838;37.184;2023-11-21T00:01:57;98667.50;;;-8.71;46.88
65534;BME280;53640;55.838;37.184;2023-11-21T00:04:24;98664.88;;;-8.71;46.69
65534;BME280;53640;55.838;37.184;2023-11-21T00:06:51;98705.78;;;-8.44;46.77
65534;BME280;53640;55.838;37.184;2023-11-21T00:09:18;98711.97;;;-8.45;46.59
65534;BME280;53640;55.838;37.184;2023-11-21T00:11:45;98670.00;;;-8.69;46.88
65534;BME280;53640;55.838;37.184;2023-11-21T00:14:12;98670.25;;;-8.72;46.31
65534;BME280;53640;55.838;37.184;2023-11-21T00:16:38;98647.03;;;-8.89;46.70
65534;BME280;53640;55.838;37.184;2023-11-21T00:19:05;98675.44;;;-8.83;46.71
65534;BME280;53640;55.838;37.184;2023-11-21T00:21:32;98663.22;;;-8.96;46.74
65534;BME280;53640;55.838;37.184;2023-11-21T00:23:59;98713.34;;;-8.63;46.89
65534;BME280;53640;55.838;37.184;2023-11-21T00:26:26;98695.75;;;-8.74;46.81
65534;BME280;53640;55.838;37.184;2023-11-21T00:29:01;98707.06;;;-8.74;47.02
65534;BME280;53640;55.838;37.184;2023-11-21T00:31:29;98665.41;;;-8.89;47.02
65534;BME280;53640;55.838;37.184;2023-11-21T00:33:57;98659.53;;;-8.93;47.12
65534;BME280;53640;55.838;37.184;2023-11-21T00:36:24;98678.44;;;-8.77;47.22
65534;BME280;53640;55.838;37.184;2023-11-21T00:38:52;98702.84;;;-8.63;47.09
65534;BME280;53640;55.838;37.184;2023-11-21T00:41:18;98727.94;;;-8.48;46.67
65534;BME280;53640;55.838;37.184;2023-11-21T00:43:45;98711.81;;;-8.55;46.90
65534;BME280;53640;55.838;37.184;2023-11-21T00:46:12;98663.25;;;-8.84;46.66
65534;BME280;53640;55.838;37.184;2023-11-21T00:48:38;98652.06;;;-8.86;46.87
65534;BME280;53640;55.838;37.184;2023-11-21T00:51:05;98659.94;;;-8.86;46.74
65534;BME280;53640;55.838;37.184;2023-11-21T00:53:32;98674.38;;;-8.81;46.69
65534;BME280;53640;55.838;37.184;2023-11-21T00:55:59;98691.34;;;-8.74;46.69
65534;BME280;53640;55.838;37.184;2023-11-21T00:58:27;98651.06;;;-8.97;46.66
65534;BME280;53640;55.838;37.184;2023-11-21T01:00:53;98710.81;;;-8.65;46.92
65534;BME280;53640;55.838;37.184;2023-11-21T01:03:20;98712.28;;;-8.61;46.75
65534;BME280;53640;55.838;37.184;2023-11-21T01:05:47;98711.75;;;-8.66;46.76
65534;BME280;53640;55.838;37.184;2023-11-21T01:08:16;98696.38;;;-8.71;46.85
65534;BME280;53640;55.838;37.184;2023-11-21T01:10:43;98649.50;;;-8.99;47.13
65534;BME280;53640;55.838;37.184;2023-11-21T01:13:09;98664.00;;;-8.82;46.82
65534;BME280;53640;55.838;37.184;2023-11-21T01:15:37;98666.34;;;-8.91;46.40
65534;BME280;53640;55.838;37.184;2023-11-21T01:18:04;98659.13;;;-9.00;46.62
65534;BME280;53640;55.838;37.184;2023-11-21T01:20:30;98662.22;;;-9.06;46.65
65534;BME280;53640;55.838;37.184;2023-11-21T01:22:56;98692.94;;;-8.84;46.66
65534;BME280;53640;55.838;37.184;2023-11-21T01:25:23;98707.84;;;-8.84;46.71
65534;BME280;53640;55.838;37.184;2023-11-21T01:27:49;98694.78;;;-8.97;46.51
65534;BME280;53640;55.838;37.184;2023-11-21T01:30:17;98655.16;;;-9.29;46.60
65534;BME280;53640;55.838;37.184;2023-11-21T01:32:43;98680.94;;;-9.23;46.70
65534;BME280;53640;55.838;37.184;2023-11-21T01:35:10;98660.09;;;-9.37;46.56
65534;BME280;53640;55.838;37.184;2023-11-21T01:37:37;98668.09;;;-9.39;46.61
65534;BME280;53640;55.838;37.184;2023-11-21T01:40:05;98693.97;;;-9.34;46.81
65534;BME280;53640;55.838;37.184;2023-11-21T01:42:40;98685.28;;;-9.48;46.76
65534;BME280;53640;55.838;37.184;2023-11-21T01:45:09;98715.97;;;-9.37;46.82
65534;BME280;53640;55.838;37.184;2023-11-21T01:47:36;98649.91;;;-9.79;46.96
65534;BME280;53640;55.838;37.184;2023-11-21T01:50:06;98704.69;;;-9.50;47.30
65534;BME280;53640;55.838;37.184;2023-11-21T01:52:34;98688.97;;;-9.63;47.30
65534;BME280;53640;55.838;37.184;2023-11-21T01:55:04;98724.97;;;-9.41;47.45
65534;BME280;53640;55.838;37.184;2023-11-21T01:57:33;98719.75;;;-9.41;47.36
65534;BME280;53640;55.838;37.184;2023-11-21T02:00:02;98707.09;;;-9.47;47.67
65534;BME280;53640;55.838;37.184;2023-11-21T02:02:45;98694.53;;;-9.55;47.71
65534;BME280;53640;55.838;37.184;2023-11-21T02:05:13;98699.44;;;-9.50;47.41
65534;BME280;53640;55.838;37.184;2023-11-21T02:07:41;98704.16;;;-9.43;47.56
65534;BME280;53640;55.838;37.184;2023-11-21T02:10:09;98662.69;;;-9.61;47.59
65534;BME280;53640;55.838;37.184;2023-11-21T02:12:37;98700.16;;;-9.35;47.41
65534;BME280;53640;55.838;37.184;2023-11-21T02:15:12;98682.66;;;-9.48;47.09
65534;BME280;53640;55.838;37.184;2023-11-21T02:17:46;98714.25;;;-9.25;47.61
65534;BME280;53640;55.838;37.184;2023-11-21T02:20:22;98712.25;;;-9.22;47.72
65534;BME280;53640;55.838;37.184;2023-11-21T02:22:55;98656.06;;;-9.54;47.40
65534;BME280;53640;55.838;37.184;2023-11-21T02:25:27;98600.28;;;-9.93;47.52
65534;BME280;53640;55.838;37.184;2023-11-21T02:27:58;98714.78;;;-9.20;47.38
65534;BME280;53640;55.838;37.184;2023-11-21T02:30:27;98717.91;;;-9.15;47.39
65534;BME280;53640;55.838;37.184;2023-11-21T02:33:02;98705.47;;;-9.24;47.51
65534;BME280;53640;55.838;37.184;2023-11-21T02:35:28;98706.94;;;-9.20;47.57
65534;BME280;53640;55.838;37.184;2023-11-21T02:37:59;98716.03;;;-9.13;47.41
65534;BME280;53640;55.838;37.184;2023-11-21T02:40:26;98674.38;;;-9.42;47.21
65534;BME280;53640;55.838;37.184;2023-11-21T02:42:54;98687.88;;;-9.35;47.39
65534;BME280;53640;55.838;37.184;2023-11-21T02:45:21;98697.06;;;-9.29;48.11
65534;BME280;53640;55.838;37.184;2023-11-21T02:47:47;98716.47;;;-9.19;47.71
65534;BME280;53640;55.838;37.184;2023-11-21T02:50:15;98731.75;;;-9.13;47.61
65534;BME280;53640;55.838;37.184;2023-11-21T02:52:41;98724.66;;;-9.24;47.76
65534;BME280;53640;55.838;37.184;2023-11-21T02:55:08;98708.72;;;-9.33;47.71
65534;BME280;53640;55.838;37.184;2023-11-21T02:57:34;98706.94;;;-9.33;47.60
65534;BME280;53640;55.838;37.184;2023-11-21T03:00:01;98606.59;;;-9.96;47.69
65534;BME280;53640;55.838;37.184;2023-11-21T03:02:32;98737.63;;;-9.22;47.62
65534;BME280;53640;55.838;37.184;2023-11-21T03:04:58;98711.34;;;-9.33;47.69
65534;BME280;53640;55.838;37.184;2023-11-21T03:07:25;98734.31;;;-9.24;47.56
65534;BME280;53640;55.838;37.184;2023-11-21T03:09:52;98691.66;;;-9.52;47.74
65534;BME280;53640;55.838;37.184;2023-11-21T03:12:18;98725.19;;;-9.31;47.97
65534;BME280;53640;55.838;37.184;2023-11-21T03:14:45;98709.38;;;-9.43;47.98
65534;BME280;53640;55.838;37.184;2023-11-21T03:17:12;98735.47;;;-9.28;47.98
65534;BME280;53640;55.838;37.184;2023-11-21T03:19:38;98709.38;;;-9.43;47.94
65534;BME280;53640;55.838;37.184;2023-11-21T03:22:06;98706.66;;;-9.41;47.90
65534;BME280;53640;55.838;37.184;2023-11-21T03:24:33;98703.41;;;-9.45;47.79
65534;BME280;53640;55.838;37.184;2023-11-21T03:26:59;98743.81;;;-9.23;47.89
65534;BME280;53640;55.838;37.184;2023-11-21T03:29:28;98689.81;;;-9.62;47.91
65534;BME280;53640;55.838;37.184;2023-11-21T03:31:57;98736.09;;;-9.37;47.84
65534;BME280;53640;55.838;37.184;2023-11-21T03:34:27;98740.63;;;-9.40;48.09
65534;BME280;53640;55.838;37.184;2023-11-21T03:36:55;98733.16;;;-9.46;48.05
65534;BME280;53640;55.838;37.184;2023-11-21T03:39:22;98709.00;;;-9.62;48.33
65534;BME280;53640;55.838;37.184;2023-11-21T03:41:50;98693.91;;;-9.71;48.57
65534;BME280;53640;55.838;37.184;2023-11-21T03:44:18;98733.16;;;-9.46;48.44
65534;BME280;53640;55.838;37.184;2023-11-21T03:46:45;98716.94;;;-9.51;48.29
65534;BME280;53640;55.838;37.184;2023-11-21T03:49:13;98736.41;;;-9.42;48.30
65534;BME280;53640;55.838;37.184;2023-11-21T03:51:42;98752.44;;;-9.34;48.10
65534;BME280;53640;55.838;37.184;2023-11-21T03:54:08;98749.81;;;-9.34;47.69
65534;BME280;53640;55.838;37.184;2023-11-21T03:56:36;98740.81;;;-9.43;47.85
65534;BME280;53640;55.838;37.184;2023-11-21T03:59:03;98746.06;;;-9.43;47.64
65534;BME280;53640;55.838;37.184;2023-11-21T04:01:29;98757.25;;;-9.41;47.46
65534;BME280;53640;55.838;37.184;2023-11-21T04:03:56;98749.00;;;-9.47;47.62
65534;BME280;53640;55.838;37.184;2023-11-21T04:06:23;98713.91;;;-9.70;47.73
65534;BME280;53640;55.838;37.184;2023-11-21T04:08:49;98753.72;;;-9.52;47.99
65534;BME280;53640;55.838;37.184;2023-11-21T04:11:16;98720.53;;;-9.77;47.98
65534;BME280;53640;55.838;37.184;2023-11-21T04:13:42;98757.59;;;-9.58;47.76
65534;BME280;53640;55.838;37.184;2023-11-21T04:16:09;98745.75;;;-9.64;47.95
65534;BME280;53640;55.838;37.184;2023-11-21T04:18:37;98764.59;;;-9.46;48.77
65534;BME280;53640;55.838;37.184;2023-11-21T04:21:07;98683.75;;;-9.89;48.93
65534;BME280;53640;55.838;37.184;2023-11-21T04:23:35;98760.84;;;-9.42;48.28
65534;BME280;53640;55.838;37.184;2023-11-21T04:26:01;98747.94;;;-9.45;47.91
65534;BME280;53640;55.838;37.184;2023-11-21T04:28:28;98780.44;;;-9.34;47.72
65534;BME280;53640;55.838;37.184;2023-11-21T04:30:55;98744.81;;;-9.50;47.87
65534;BME280;53640;55.838;37.184;2023-11-21T04:33:21;98754.44;;;-9.37;47.70
65534;BME280;53640;55.838;37.184;2023-11-21T04:35:48;98777.28;;;-9.27;47.96
65534;BME280;53640;55.838;37.184;2023-11-21T04:38:15;98741.97;;;-9.47;48.17
65534;BME280;53640;55.838;37.184;2023-11-21T04:40:41;98721.22;;;-9.50;48.16
65534;BME280;53640;55.838;37.184;2023-11-21T04:43:08;98751.91;;;-9.26;48.29
65534;BME280;53640;55.838;37.184;2023-11-21T04:45:34;98761.84;;;-9.19;48.08
65534;BME280;53640;55.838;37.184;2023-11-21T04:48:01;98739.63;;;-9.26;48.12
65534;BME280;53640;55.838;37.184;2023-11-21T04:50:27;98782.34;;;-9.00;47.87
65534;BME280;53640;55.838;37.184;2023-11-21T04:52:54;98785.06;;;-8.88;47.65
65534;BME280;53640;55.838;37.184;2023-11-21T04:55:46;98626.19;;;-9.89;47.08
65534;BME280;53640;55.838;37.184;2023-11-21T04:58:17;98743.78;;;-9.10;47.27
65534;BME280;53640;55.838;37.184;2023-11-21T05:00:45;98795.00;;;-8.81;47.34
65534;BME280;53640;55.838;37.184;2023-11-21T05:03:11;98785.28;;;-8.92;47.13
65534;BME280;53640;55.838;37.184;2023-11-21T05:05:38;98766.13;;;-9.05;46.97
65534;BME280;53640;55.838;37.184;2023-11-21T05:08:04;98759.59;;;-8.99;47.20
65534;BME280;53640;55.838;37.184;2023-11-21T05:10:31;98797.00;;;-8.84;47.11
65534;BME280;53640;55.838;37.184;2023-11-21T05:12:57;98790.31;;;-8.88;46.98
65534;BME280;53640;55.838;37.184;2023-11-21T05:15:24;98744.13;;;-9.15;46.84
65534;BME280;53640;55.838;37.184;2023-11-21T05:17:51;98715.41;;;-9.29;47.19
65534;BME280;53640;55.838;37.184;2023-11-21T05:20:19;98771.88;;;-9.00;46.92
65534;BME280;53640;55.838;37.184;2023-11-21T05:22:47;98768.00;;;-9.07;47.00
65534;BME280;53640;55.838;37.184;2023-11-21T05:25:17;98761.31;;;-9.11;47.20
65534;BME280;53640;55.838;37.184;2023-11-21T05:27:46;98770.41;;;-9.04;47.04
65534;BME280;53640;55.838;37.184;2023-11-21T05:30:14;98743.94;;;-9.25;46.94
65534;BME280;53640;55.838;37.184;2023-11-21T05:32:41;98696.41;;;-9.57;46.85
65534;BME280;53640;55.838;37.184;2023-11-21T05:35:10;98792.84;;;-9.00;47.31
65534;BME280;53640;55.838;37.184;2023-11-21T05:37:42;98768.00;;;-9.07;47.34
65534;BME280;53640;55.838;37.184;2023-11-21T05:40:09;98780.16;;;-8.93;47.39
65534;BME280;53640;55.838;37.184;2023-11-21T05:42:36;98764.00;;;-9.00;47.58
65534;BME280;53640;55.838;37.184;2023-11-21T05:45:04;98783.41;;;-8.89;47.58
65534;BME280;53640;55.838;37.184;2023-11-21T05:50:08;98777.41;;;-8.92;47.64
65534;BME280;53640;55.838;37.184;2023-11-21T05:52:42;98778.88;;;-8.87;47.62
65534;BME280;53640;55.838;37.184;2023-11-21T05:55:11;98804.03;;;-8.72;47.65
65534;BME280;53640;55.838;37.184;2023-11-21T05:57:38;98783.47;;;-8.78;47.53
65534;BME280;53640;55.838;37.184;2023-11-21T06:00:07;98791.75;;;-8.72;47.50
65534;BME280;53640;55.838;37.184;2023-11-21T06:02:49;98772.38;;;-8.82;47.59
65534;BME280;53640;55.838;37.184;2023-11-21T06:05:18;98774.97;;;-8.82;47.38
65534;BME280;53640;55.838;37.184;2023-11-21T06:07:45;98771.75;;;-8.85;47.24
65534;BME280;53640;55.838;37.184;2023-11-21T06:10:12;98768.38;;;-8.87;46.87
65534;BME280;53640;55.838;37.184;2023-11-21T06:12:40;98796.25;;;-8.74;47.00
65534;BME280;53640;55.838;37.184;2023-11-21T06:15:12;98812.91;;;-8.62;46.81
65534;BME280;53640;55.838;37.184;2023-11-21T06:17:42;98785.81;;;-8.86;46.90
65534;BME280;53640;55.838;37.184;2023-11-21T06:20:09;98812.09;;;-8.75;46.94
65534;BME280;53640;55.838;37.184;2023-11-21T06:22:38;98766.63;;;-9.00;47.03
65534;BME280;53640;55.838;37.184;2023-11-21T06:25:05;98749.16;;;-9.12;47.23
65534;BME280;53640;55.838;37.184;2023-11-21T06:27:33;98802.31;;;-8.73;47.30
65534;BME280;53640;55.838;37.184;2023-11-21T06:30:00;98806.13;;;-8.77;47.32
65534;BME280;53640;55.838;37.184;2023-11-21T06:32:30;98782.00;;;-8.82;47.62
65534;BME280;53640;55.838;37.184;2023-11-21T06:34:57;98819.22;;;-8.64;47.36
65534;BME280;53640;55.838;37.184;2023-11-21T06:37:28;98752.19;;;-9.05;47.24
65534;BME280;53640;55.838;37.184;2023-11-21T06:39:56;98814.06;;;-8.66;47.10
65534;BME280;53640;55.838;37.184;2023-11-21T06:42:27;98778.47;;;-8.94;47.38
65534;BME280;53640;55.838;37.184;2023-11-21T06:44:55;98807.69;;;-8.75;47.26
65534;BME280;53640;55.838;37.184;2023-11-21T06:47:34;98819.31;;;-8.66;47.27
65534;BME280;53640;55.838;37.184;2023-11-21T06:50:02;98824.56;;;-8.66;47.21
65534;BME280;53640;55.838;37.184;2023-11-21T06:52:30;98818.34;;;-8.65;47.26
65534;BME280;53640;55.838;37.184;2023-11-21T06:54:56;98817.22;;;-8.61;47.26
65534;BME280;53640;55.838;37.184;2023-11-21T06:57:26;98777.19;;;-8.88;46.81
65534;BME280;53640;55.838;37.184;2023-11-21T06:59:52;98773.75;;;-8.89;47.17
65534;BME280;53640;55.838;37.184;2023-11-21T07:02:19;98822.47;;;-8.61;47.05
65534;BME280;53640;55.838;37.184;2023-11-21T07:04:46;98826.84;;;-8.61;46.88
65534;BME280;53640;55.838;37.184;2023-11-21T07:07:12;98785.81;;;-8.86;47.25
65534;BME280;53640;55.838;37.184;2023-11-21T07:09:39;98801.63;;;-8.75;47.17
65534;BME280;53640;55.838;37.184;2023-11-21T07:12:06;98807.19;;;-8.80;47.25
65534;BME280;53640;55.838;37.184;2023-11-21T07:14:37;98847.41;;;-8.55;47.04
65534;BME280;53640;55.838;37.184;2023-11-21T07:17:06;98791.88;;;-8.86;47.25
65534;BME280;53640;55.838;37.184;2023-11-21T07:19:32;98814.72;;;-8.75;47.34
65534;BME280;53640;55.838;37.184;2023-11-21T07:21:59;98803.50;;;-8.77;47.28
65534;BME280;53640;55.838;37.184;2023-11-21T07:24:25;98815.66;;;-8.76;47.35
65534;BME280;53640;55.838;37.184;2023-11-21T07:26:52;98794.94;;;-8.92;47.22
65534;BME280;53640;55.838;37.184;2023-11-21T07:29:23;98832.75;;;-8.71;47.48
65534;BME280;53640;55.838;37.184;2023-11-21T07:31:52;98821.66;;;-8.74;47.50
65534;BME280;53640;55.838;37.184;2023-11-21T07:34:20;98830.63;;;-8.66;47.25
65534;BME280;53640;55.838;37.184;2023-11-21T07:36:47;98787.28;;;-8.95;47.31
65534;BME280;53640;55.838;37.184;2023-11-21T07:39:14;98812.53;;;-8.81;47.73
65534;BME280;53640;55.838;37.184;2023-11-21T07:41:42;98840.97;;;-8.75;47.91
65534;BME280;53640;55.838;37.184;2023-11-21T07:44:16;98828.69;;;-8.87;48.01
65534;BME280;53640;55.838;37.184;2023-11-21T07:46:43;98830.72;;;-8.91;48.32
65534;BME280;53640;55.838;37.184;2023-11-21T07:49:10;98828.59;;;-8.99;48.74
65534;BME280;53640;55.838;37.184;2023-11-21T07:51:36;98829.56;;;-9.00;48.80
65534;BME280;53640;55.838;37.184;2023-11-21T07:54:03;98772.25;;;-9.43;48.92
65534;BME280;53640;55.838;37.184;2023-11-21T07:56:29;98801.59;;;-9.25;49.15
65534;BME280;53640;55.838;37.184;2023-11-21T07:58:56;98847.19;;;-9.02;49.52
65534;BME280;53640;55.838;37.184;2023-11-21T08:01:22;98801.38;;;-9.22;49.86
65534;BME280;53640;55.838;37.184;2023-11-21T08:03:48;98852.28;;;-8.87;49.59
65534;BME280;53640;55.838;37.184;2023-11-21T08:06:23;98826.44;;;-9.05;49.61
65534;BME280;53640;55.838;37.184;2023-11-21T08:08:59;98809.22;;;-9.09;49.64
65534;BME280;53640;55.838;37.184;2023-11-21T08:11:26;98834.16;;;-8.91;49.78
65534;BME280;53640;55.838;37.184;2023-11-21T08:13:55;98782.41;;;-9.12;49.72
65534;BME280;53640;55.838;37.184;2023-11-21T08:16:21;98826.47;;;-8.81;49.73
65534;BME280;53640;55.838;37.184;2023-11-21T08:18:51;98798.50;;;-8.93;49.75
65534;BME280;53640;55.838;37.184;2023-11-21T08:21:21;98773.44;;;-8.97;49.61
65534;BME280;53640;55.838;37.184;2023-11-21T08:23:50;98787.13;;;-8.81;49.63
65534;BME280;53640;55.838;37.184;2023-11-21T08:26:22;98832.91;;;-8.48;49.48
65534;BME280;53640;55.838;37.184;2023-11-21T08:28:51;98819.44;;;-8.44;49.36
65534;BME280;53640;55.838;37.184;2023-11-21T08:31:25;98808.06;;;-8.31;49.22
65534;BME280;53640;55.838;37.184;2023-11-21T08:33:52;98816.72;;;-8.18;48.95
65534;BME280;53640;55.838;37.184;2023-11-21T08:36:22;98804.81;;;-8.11;49.12
65534;BME280;53640;55.838;37.184;2023-11-21T08:38:51;98792.78;;;-8.02;48.85
65534;BME280;53640;55.838;37.184;2023-11-21T08:41:18;98770.78;;;-8.12;48.63
65534;BME280;53640;55.838;37.184;2023-11-21T08:43:49;98795.41;;;-7.78;48.52
65534;BME280;53640;55.838;37.184;2023-11-21T08:46:18;98697.97;;;-8.22;47.92
65534;BME280;53640;55.838;37.184;2023-11-21T08:48:45;98734.97;;;-7.89;47.16
65534;BME280;53640;55.838;37.184;2023-11-21T08:51:17;98755.06;;;-7.66;46.94
65534;BME280;53640;55.838;37.184;2023-11-21T08:53:45;98717.28;;;-7.87;46.62
65534;BME280;53640;55.838;37.184;2023-11-21T08:56:13;98812.69;;;-7.29;45.92
65534;BME280;53640;55.838;37.184;2023-11-21T08:58:40;98805.25;;;-7.35;46.07
65534;BME280;53640;55.838;37.184;2023-11-21T09:01:07;98786.59;;;-7.55;45.82
65534;BME280;53640;55.838;37.184;2023-11-21T09:03:35;98756.94;;;-7.79;45.95
65534;BME280;53640;55.838;37.184;2023-11-21T09:06:02;98795.78;;;-7.49;45.57
65534;BME280;53640;55.838;37.184;2023-11-21T09:08:30;98752.75;;;-7.82;45.54
65534;BME280;53640;55.838;37.184;2023-11-21T09:10:57;98794.25;;;-7.63;45.46
65534;BME280;53640;55.838;37.184;2023-11-21T09:13:25;98814.78;;;-7.57;45.51
65534;BME280;53640;55.838;37.184;2023-11-21T09:15:53;98787.63;;;-7.69;45.39
65534;BME280;53640;55.838;37.184;2023-11-21T09:18:24;98814.06;;;-7.59;44.84
65534;BME280;53640;55.838;37.184;2023-11-21T09:21:17;98810.84;;;-7.62;44.52
65534;BME280;53640;55.838;37.184;2023-11-21T09:23:48;98766.88;;;-8.07;44.74
65534;BME280;53640;55.838;37.184;2023-11-21T09:26:35;98827.41;;;-7.73;44.60
65534;BME280;53640;55.838;37.184;2023-11-21T09:29:18;98845.78;;;-7.73;44.77
65534;BME280;53640;55.838;37.184;2023-11-21T09:31:47;98757.00;;;-8.27;44.81
65534;BME280;53640;55.838;37.184;2023-11-21T09:34:17;98731.56;;;-8.38;44.93
65534;BME280;53640;55.838;37.184;2023-11-21T09:36:50;98841.69;;;-7.88;44.49
65534;BME280;53640;55.838;37.184;2023-11-21T09:39:17;98678.63;;;-8.91;44.78
65534;BME280;53640;55.838;37.184;2023-11-21T09:41:52;98655.97;;;-8.92;44.99
65534;BME280;53640;55.838;37.184;2023-11-21T09:44:32;98723.53;;;-8.48;44.94
65534;BME280;53640;55.838;37.184;2023-11-21T09:47:14;98849.78;;;-7.91;45.15
65534;BME280;53640;55.838;37.184;2023-11-21T10:05:00;98734.03;;;-8.72;46.15
65534;BME280;53640;55.838;37.184;2023-11-21T10:07:49;98692.09;;;-9.08;46.29
65534;BME280;53640;55.838;37.184;2023-11-21T10:41:33;98814.53;;;-8.85;46.56
65534;BME280;53640;55.838;37.184;2023-11-21T10:44:13;98789.19;;;-9.10;46.89
65534;BME280;53640;55.838;37.184;2023-11-21T10:47:02;98886.09;;;-8.46;46.91
65534;BME280;53640;55.838;37.184;2023-11-21T10:49:39;98778.06;;;-9.01;47.05
65534;BME280;53640;55.838;37.184;2023-11-21T10:52:47;98879.47;;;-8.39;46.92
65534;BME280;53640;55.838;37.184;2023-11-21T11:00:27;98773.25;;;-9.07;47.78
65534;BME280;53640;55.838;37.184;2023-11-21T11:03:35;98747.41;;;-9.24;48.01
65534;BME280;53640;55.838;37.184;2023-11-21T11:06:50;98703.94;;;-9.52;47.77
65534;BME280;53640;55.838;37.184;2023-11-21T11:09:20;98740.47;;;-9.25;47.39
65534;BME280;53640;55.838;37.184;2023-11-21T11:15:50;98715.66;;;-9.32;47.34
65534;BME280;53640;55.838;37.184;2023-11-21T11:18:50;98738.03;;;-9.16;47.19
65534;BME280;53640;55.838;37.184;2023-11-21T11:21:38;98868.66;;;-8.34;47.08
65534;BME280;53640;55.838;37.184;2023-11-21T11:32:27;98889.34;;;-8.43;46.66
65534;BME280;53640;55.838;37.184;2023-11-21T11:39:29;98721.22;;;-9.50;46.60
65534;BME280;53640;55.838;37.184;2023-11-21T11:42:07;98894.09;;;-8.48;46.58
65534;BME280;53640;55.838;37.184;2023-11-21T11:48:21;98766.38;;;-9.33;46.34
65534;BME280;53640;55.838;37.184;2023-11-21T11:51:15;98889.81;;;-8.49;46.26
65534;BME280;53640;55.838;37.184;2023-11-21T11:53:48;98767.53;;;-9.37;46.14
65534;BME280;53640;55.838;37.184;2023-11-21T11:56:28;98844.88;;;-8.94;46.15
65534;BME280;53640;55.838;37.184;2023-11-21T11:59:09;98808.94;;;-9.17;46.10
65534;BME280;53640;55.838;37.184;2023-11-21T12:01:35;98833.25;;;-9.02;46.10
65534;BME280;53640;55.838;37.184;2023-11-21T12:07:04;98914.69;;;-8.67;46.11
65534;BME280;53640;55.838;37.184;2023-11-21T12:09:43;98764.00;;;-9.62;46.42
65534;BME280;53640;55.838;37.184;2023-11-21T12:12:41;98739.78;;;-9.78;46.53
65534;BME280;53640;55.838;37.184;2023-11-21T12:15:43;98780.00;;;-9.54;46.82
65534;BME280;53640;55.838;37.184;2023-11-21T12:21:42;98742.72;;;-9.83;46.85
65534;BME280;53640;55.838;37.184;2023-11-21T12:24:49;98786.72;;;-9.50;46.73
65534;BME280;53640;55.838;37.184;2023-11-21T12:27:30;98816.91;;;-9.31;46.81
65534;BME280;53640;55.838;37.184;2023-11-21T12:30:16;98815.44;;;-9.35;46.68
65534;BME280;53640;55.838;37.184;2023-11-21T12:32:56;98707.19;;;-10.13;46.93
65534;BME280;53640;55.838;37.184;2023-11-21T12:35:26;98930.66;;;-8.83;47.04
65534;BME280;53640;55.838;37.184;2023-11-21T12:37:55;98811.75;;;-9.46;46.85
65534;BME280;53640;55.838;37.184;2023-11-21T12:40:25;98750.78;;;-9.86;46.89
65534;BME280;53640;55.838;37.184;2023-11-21T12:42:56;98831.38;;;-9.38;46.94
65534;BME280;53640;55.838;37.184;2023-11-21T12:45:26;98868.16;;;-9.15;46.89
65534;BME280;53640;55.838;37.184;2023-11-21T12:48:31;98765.03;;;-9.77;46.83
65534;BME280;53640;55.838;37.184;2023-11-21T12:51:14;98922.78;;;-8.70;47.08
65534;BME280;53640;55.838;37.184;2023-11-21T12:54:08;98799.72;;;-9.61;47.08
65534;BME280;53640;55.838;37.184;2023-11-21T12:56:39;98799.50;;;-9.45;47.02
65534;BME280;53640;55.838;37.184;2023-11-21T12:59:07;98823.00;;;-9.44;47.10
65534;BME280;53640;55.838;37.184;2023-11-21T13:01:46;98838.38;;;-9.26;47.49
65534;BME280;53640;55.838;37.184;2023-11-21T13:04:14;98854.97;;;-9.13;47.15
65534;BME280;53640;55.838;37.184;2023-11-21T13:06:42;98857.34;;;-9.23;46.84
65534;BME280;53640;55.838;37.184;2023-11-21T13:09:12;98768.50;;;-9.77;46.55
65534;BME280;53640;55.838;37.184;2023-11-21T13:11:58;98944.50;;;-8.68;46.43
65534;BME280;53640;55.838;37.184;2023-11-21T13:14:29;98793.50;;;-9.85;46.75
65534;BME280;53640;55.838;37.184;2023-11-21T13:17:06;98848.25;;;-9.43;46.91
65534;BME280;53640;55.838;37.184;2023-11-21T13:19:33;98822.41;;;-9.74;46.95
65534;BME280;53640;55.838;37.184;2023-11-21T13:25:34;98944.59;;;-9.08;46.76
65534;BME280;53640;55.838;37.184;2023-11-21T13:28:12;98867.81;;;-9.48;46.35
65534;BME280;53640;55.838;37.184;2023-11-21T13:31:19;98869.41;;;-9.46;46.37
65534;BME280;53640;55.838;37.184;2023-11-21T13:33:53;98924.03;;;-9.14;46.49
65534;BME280;53640;55.838;37.184;2023-11-21T13:36:34;98915.31;;;-9.27;46.31
65534;BME280;53640;55.838;37.184;2023-11-21T13:39:07;98865.19;;;-9.48;46.36
65534;BME280;53640;55.838;37.184;2023-11-21T13:41:43;98778.72;;;-9.99;46.39
65534;BME280;53640;55.838;37.184;2023-11-21T13:44:09;98883.75;;;-9.38;46.59
65534;BME280;53640;55.838;37.184;2023-11-21T13:46:54;98880.41;;;-9.41;46.55
65534;BME280;53640;55.838;37.184;2023-11-21T13:49:23;98885.38;;;-9.63;46.84
65534;BME280;53640;55.838;37.184;2023-11-21T13:51:52;98949.59;;;-9.18;47.08
65534;BME280;53640;55.838;37.184;2023-11-21T13:54:23;98857.31;;;-9.74;46.98
65534;BME280;53640;55.838;37.184;2023-11-21T13:56:51;98887.50;;;-9.55;46.83
65534;BME280;53640;55.838;37.184;2023-11-21T13:59:18;98833.69;;;-9.99;47.17
65534;BME280;53640;55.838;37.184;2023-11-21T14:01:50;98828.34;;;-9.98;47.18
65534;BME280;53640;55.838;37.184;2023-11-21T14:04:26;98919.19;;;-9.33;47.12
65534;BME280;53640;55.838;37.184;2023-11-21T14:13:39;98858.88;;;-9.71;47.02
65534;BME280;53640;55.838;37.184;2023-11-21T14:16:17;98861.94;;;-9.65;47.13
65534;BME280;53640;55.838;37.184;2023-11-21T14:18:47;98886.66;;;-9.56;47.16
65534;BME280;53640;55.838;37.184;2023-11-21T14:21:28;98858.56;;;-9.67;46.80
65534;BME280;53640;55.838;37.184;2023-11-21T14:24:01;98903.53;;;-9.60;46.83
65534;BME280;53640;55.838;37.184;2023-11-21T14:26:28;98830.28;;;-10.14;47.30
65534;BME280;53640;55.838;37.184;2023-11-21T14:28:55;98891.84;;;-9.81;47.25
65534;BME280;53640;55.838;37.184;2023-11-21T14:31:23;98977.16;;;-9.37;47.54
65534;BME280;53640;55.838;37.184;2023-11-21T14:33:50;98884.25;;;-9.99;47.60
65534;BME280;53640;55.838;37.184;2023-11-21T14:36:19;98849.84;;;-10.20;47.84
65534;BME280;53640;55.838;37.184;2023-11-21T14:38:49;98917.00;;;-9.79;47.95
65534;BME280;53640;55.838;37.184;2023-11-21T14:41:22;98860.03;;;-10.15;47.97